Aérodrome :
LOGIN :

S'inscrire | Disclaimer

   EN    FR    IT 

 










Légende :    VFR   VFR Marginal   IFR   IFR Intensif   IFR Très Intensif
Visi : 
Plafond : 
>= 8 km
>= 3000ft
5 à 8 km
1000 à 3000 ft
1500m à 5 km
500 à 1000 ft
800 à 1500m
200 à 500 ft
< 800m
< 200 ft
Symboles :   Orages  Brouillard  Fortes neiges  Fortes précipitations  Vent > 20 kt
SIGMETs :   Divers  Orages  Givrage  Turbulence  Onde Orograph.  Cendres Volcan.







- Altitude de l'aérodrome : 157 ft
- Code IATA : LIL
- Voir les cartes d'approche


LFQQ - Lille Lesquin

DERNIER METAR :
  • 200630Z AUTO 18007KT CAVOK 15/13 Q1017 TEMPO BKN013

METARs EXPIRÉS :
  • 200600Z AUTO 18005KT CAVOK 14/13 Q1017 TEMPO BKN013
  • 200530Z AUTO 16003KT CAVOK 14/12 Q1017 TEMPO BKN013 BECMG 19014KT
  • 200500Z AUTO 15003KT CAVOK 14/12 Q1017 NOSIG
  • 200430Z AUTO 17004KT CAVOK 15/12 Q1017 NOSIG
  • 200400Z AUTO 17005KT CAVOK 15/12 Q1017 NOSIG

TAF TAF LFQQ
Valide du 20 à 06h jusqu'au 21 à 12h UTC


200500Z 2006/2112 17004KT CAVOK
PROB30
TEMPO 2006/2009 BKN013
BECMG 2007/2009 19014KT
BECMG 2022/2024 19020G30KT
TEMPO 2104/2106 3000 RA OVC010
FM210600 27027G40KT 9999 BKN040
ATIS : +33 3 20 16 19 54
Pas de NOTAMs connus pour ce terrain.



MET'MAP, la Météo Aéronautique d'un coup d'oeil ! - Copyright ORBIFLY Décembre 2007 - Disclaimer

ORBIFLY MET'MAP TEAM :

Programmation & Développement : Alexandra Zaïnal
Conception & Développement : Baudouin d'Aumeries
Co-Programmation & Développement : Marc-Olivier Méhu
Soutien technique & logistique : Manuel Goepfert

Contact : metmap@orbifly.com




SOURCES & CREDITS :

   NOAA